sensor_id;sensor_type;location;lat;lon;timestamp;P1;durP1;ratioP1;P2;durP2;ratioP2
55483;SDS011;41345;51.704;5.146;2023-04-03T00:04:35;12.57;;;11.57;;
55483;SDS011;41345;51.704;5.146;2023-04-03T00:09:35;12.52;;;11.32;;
55483;SDS011;41345;51.704;5.146;2023-04-03T00:14:36;11.90;;;10.88;;
55483;SDS011;41345;51.704;5.146;2023-04-03T00:19:36;13.00;;;11.88;;
55483;SDS011;41345;51.704;5.146;2023-04-03T00:24:36;13.93;;;12.80;;
55483;SDS011;41345;51.704;5.146;2023-04-03T00:29:37;13.70;;;12.60;;
55483;SDS011;41345;51.704;5.146;2023-04-03T00:34:37;17.80;;;16.42;;
55483;SDS011;41345;51.704;5.146;2023-04-03T00:39:37;17.45;;;15.75;;
55483;SDS011;41345;51.704;5.146;2023-04-03T00:49:38;17.77;;;16.38;;
55483;SDS011;41345;51.704;5.146;2023-04-03T00:54:39;18.25;;;16.75;;
55483;SDS011;41345;51.704;5.146;2023-04-03T00:59:44;16.10;;;14.98;;
55483;SDS011;41345;51.704;5.146;2023-04-03T01:04:46;17.40;;;15.95;;
55483;SDS011;41345;51.704;5.146;2023-04-03T01:09:48;17.38;;;15.98;;
55483;SDS011;41345;51.704;5.146;2023-04-03T01:14:50;17.48;;;16.10;;
55483;SDS011;41345;51.704;5.146;2023-04-03T01:19:52;14.75;;;13.55;;
55483;SDS011;41345;51.704;5.146;2023-04-03T01:24:56;15.00;;;13.70;;
55483;SDS011;41345;51.704;5.146;2023-04-03T01:29:57;14.98;;;13.85;;
55483;SDS011;41345;51.704;5.146;2023-04-03T01:34:57;15.57;;;14.35;;
55483;SDS011;41345;51.704;5.146;2023-04-03T01:39:58;16.92;;;15.43;;
55483;SDS011;41345;51.704;5.146;2023-04-03T01:44:58;14.57;;;13.48;;
55483;SDS011;41345;51.704;5.146;2023-04-03T01:49:58;15.40;;;14.27;;
55483;SDS011;41345;51.704;5.146;2023-04-03T01:54:58;14.98;;;13.77;;
55483;SDS011;41345;51.704;5.146;2023-04-03T01:59:59;14.90;;;13.80;;
55483;SDS011;41345;51.704;5.146;2023-04-03T02:04:59;14.77;;;13.57;;
55483;SDS011;41345;51.704;5.146;2023-04-03T02:09:59;16.08;;;14.60;;
55483;SDS011;41345;51.704;5.146;2023-04-03T02:15:00;14.68;;;13.40;;
55483;SDS011;41345;51.704;5.146;2023-04-03T02:20:00;16.67;;;15.15;;
55483;SDS011;41345;51.704;5.146;2023-04-03T02:25:01;16.10;;;14.70;;
55483;SDS011;41345;51.704;5.146;2023-04-03T02:30:02;16.02;;;14.63;;
55483;SDS011;41345;51.704;5.146;2023-04-03T02:35:02;16.73;;;15.23;;
55483;SDS011;41345;51.704;5.146;2023-04-03T02:40:03;17.77;;;16.45;;
55483;SDS011;41345;51.704;5.146;2023-04-03T02:45:04;17.55;;;16.25;;
55483;SDS011;41345;51.704;5.146;2023-04-03T02:50:05;16.92;;;15.45;;
55483;SDS011;41345;51.704;5.146;2023-04-03T02:55:05;16.85;;;15.52;;
55483;SDS011;41345;51.704;5.146;2023-04-03T03:00:06;18.65;;;16.92;;
55483;SDS011;41345;51.704;5.146;2023-04-03T03:05:07;17.25;;;15.95;;
55483;SDS011;41345;51.704;5.146;2023-04-03T03:10:08;19.05;;;17.75;;
55483;SDS011;41345;51.704;5.146;2023-04-03T03:15:08;19.67;;;18.10;;
55483;SDS011;41345;51.704;5.146;2023-04-03T03:20:09;17.83;;;16.58;;
55483;SDS011;41345;51.704;5.146;2023-04-03T03:25:09;18.55;;;17.17;;
55483;SDS011;41345;51.704;5.146;2023-04-03T03:30:10;18.63;;;17.33;;
55483;SDS011;41345;51.704;5.146;2023-04-03T03:35:10;19.98;;;18.45;;
55483;SDS011;41345;51.704;5.146;2023-04-03T03:40:11;19.70;;;18.20;;
55483;SDS011;41345;51.704;5.146;2023-04-03T03:45:13;22.05;;;20.55;;
55483;SDS011;41345;51.704;5.146;2023-04-03T03:50:13;21.97;;;20.43;;
55483;SDS011;41345;51.704;5.146;2023-04-03T03:55:13;22.08;;;20.45;;
55483;SDS011;41345;51.704;5.146;2023-04-03T04:00:14;21.63;;;20.10;;
55483;SDS011;41345;51.704;5.146;2023-04-03T04:05:14;21.75;;;20.15;;
55483;SDS011;41345;51.704;5.146;2023-04-03T04:10:14;20.85;;;19.45;;
55483;SDS011;41345;51.704;5.146;2023-04-03T04:15:15;20.48;;;19.17;;
55483;SDS011;41345;51.704;5.146;2023-04-03T04:20:15;20.00;;;18.35;;
55483;SDS011;41345;51.704;5.146;2023-04-03T04:25:15;21.55;;;19.75;;
55483;SDS011;41345;51.704;5.146;2023-04-03T04:30:15;22.02;;;20.48;;
55483;SDS011;41345;51.704;5.146;2023-04-03T04:35:16;20.90;;;19.50;;
55483;SDS011;41345;51.704;5.146;2023-04-03T04:40:16;21.30;;;19.70;;
55483;SDS011;41345;51.704;5.146;2023-04-03T04:45:17;20.80;;;19.17;;
55483;SDS011;41345;51.704;5.146;2023-04-03T04:50:17;19.25;;;17.80;;
55483;SDS011;41345;51.704;5.146;2023-04-03T04:55:17;20.67;;;19.27;;
55483;SDS011;41345;51.704;5.146;2023-04-03T05:00:18;22.38;;;20.83;;
55483;SDS011;41345;51.704;5.146;2023-04-03T05:05:18;24.45;;;22.63;;
55483;SDS011;41345;51.704;5.146;2023-04-03T05:10:18;24.48;;;22.95;;
55483;SDS011;41345;51.704;5.146;2023-04-03T05:15:19;25.48;;;23.77;;
55483;SDS011;41345;51.704;5.146;2023-04-03T05:20:19;26.35;;;24.55;;
55483;SDS011;41345;51.704;5.146;2023-04-03T05:25:20;25.73;;;24.03;;
55483;SDS011;41345;51.704;5.146;2023-04-03T05:30:20;25.95;;;24.05;;
55483;SDS011;41345;51.704;5.146;2023-04-03T05:35:21;26.80;;;24.80;;
55483;SDS011;41345;51.704;5.146;2023-04-03T05:40:21;26.13;;;24.20;;
55483;SDS011;41345;51.704;5.146;2023-04-03T05:45:21;25.92;;;24.05;;
55483;SDS011;41345;51.704;5.146;2023-04-03T05:50:22;25.03;;;23.33;;
55483;SDS011;41345;51.704;5.146;2023-04-03T05:55:22;23.98;;;22.27;;
55483;SDS011;41345;51.704;5.146;2023-04-03T06:00:22;24.27;;;22.30;;
55483;SDS011;41345;51.704;5.146;2023-04-03T06:05:23;23.40;;;21.80;;
55483;SDS011;41345;51.704;5.146;2023-04-03T06:10:23;23.38;;;21.70;;
55483;SDS011;41345;51.704;5.146;2023-04-03T06:15:24;22.30;;;20.42;;
55483;SDS011;41345;51.704;5.146;2023-04-03T06:20:24;21.23;;;19.92;;
55483;SDS011;41345;51.704;5.146;2023-04-03T06:25:25;21.23;;;19.67;;
55483;SDS011;41345;51.704;5.146;2023-04-03T06:30:26;20.13;;;18.80;;
55483;SDS011;41345;51.704;5.146;2023-04-03T06:35:27;20.65;;;19.33;;
55483;SDS011;41345;51.704;5.146;2023-04-03T06:40:28;20.55;;;19.33;;
55483;SDS011;41345;51.704;5.146;2023-04-03T06:45:28;20.00;;;18.70;;
55483;SDS011;41345;51.704;5.146;2023-04-03T06:50:29;16.48;;;15.30;;
55483;SDS011;41345;51.704;5.146;2023-04-03T06:55:29;15.60;;;14.30;;
55483;SDS011;41345;51.704;5.146;2023-04-03T07:00:30;13.30;;;12.10;;
55483;SDS011;41345;51.704;5.146;2023-04-03T07:05:30;12.40;;;11.30;;
55483;SDS011;41345;51.704;5.146;2023-04-03T07:10:31;11.80;;;10.73;;
55483;SDS011;41345;51.704;5.146;2023-04-03T07:15:31;12.90;;;9.93;;
55483;SDS011;41345;51.704;5.146;2023-04-03T07:20:31;12.27;;;11.23;;
55483;SDS011;41345;51.704;5.146;2023-04-03T07:25:32;9.30;;;8.40;;
55483;SDS011;41345;51.704;5.146;2023-04-03T07:30:33;11.15;;;7.28;;
55483;SDS011;41345;51.704;5.146;2023-04-03T07:35:34;8.68;;;7.10;;
55483;SDS011;41345;51.704;5.146;2023-04-03T07:40:34;9.87;;;6.70;;
55483;SDS011;41345;51.704;5.146;2023-04-03T07:45:35;6.90;;;6.28;;
55483;SDS011;41345;51.704;5.146;2023-04-03T07:50:35;12.10;;;5.88;;
55483;SDS011;41345;51.704;5.146;2023-04-03T07:55:36;8.35;;;6.43;;
55483;SDS011;41345;51.704;5.146;2023-04-03T08:00:42;9.43;;;6.75;;
55483;SDS011;41345;51.704;5.146;2023-04-03T08:05:43;11.13;;;7.18;;
55483;SDS011;41345;51.704;5.146;2023-04-03T08:10:47;9.60;;;6.85;;
55483;SDS011;41345;51.704;5.146;2023-04-03T08:15:47;7.88;;;5.18;;
55483;SDS011;41345;51.704;5.146;2023-04-03T08:20:48;11.80;;;4.88;;
55483;SDS011;41345;51.704;5.146;2023-04-03T08:25:48;9.35;;;4.40;;
55483;SDS011;41345;51.704;5.146;2023-04-03T08:30:48;8.55;;;3.80;;
55483;SDS011;41345;51.704;5.146;2023-04-03T08:35:49;5.72;;;3.53;;
55483;SDS011;41345;51.704;5.146;2023-04-03T08:46:10;3.38;;;1.98;;
55483;SDS011;41345;51.704;5.146;2023-04-03T08:51:14;5.65;;;2.65;;
55483;SDS011;41345;51.704;5.146;2023-04-03T08:56:15;4.63;;;2.17;;
55483;SDS011;41345;51.704;5.146;2023-04-03T09:06:25;4.05;;;2.08;;
55483;SDS011;41345;51.704;5.146;2023-04-03T09:11:27;5.88;;;1.83;;
55483;SDS011;41345;51.704;5.146;2023-04-03T09:21:39;9.18;;;1.90;;
55483;SDS011;41345;51.704;5.146;2023-04-03T09:31:43;5.18;;;1.50;;
55483;SDS011;41345;51.704;5.146;2023-04-03T09:36:49;4.25;;;1.20;;
55483;SDS011;41345;51.704;5.146;2023-04-03T09:46:50;3.17;;;1.00;;
55483;SDS011;41345;51.704;5.146;2023-04-03T09:51:50;2.60;;;1.05;;
55483;SDS011;41345;51.704;5.146;2023-04-03T09:56:51;4.18;;;1.25;;
55483;SDS011;41345;51.704;5.146;2023-04-03T10:01:59;3.58;;;1.00;;
55483;SDS011;41345;51.704;5.146;2023-04-03T10:07:00;1.77;;;0.90;;
55483;SDS011;41345;51.704;5.146;2023-04-03T10:12:05;3.08;;;0.98;;
55483;SDS011;41345;51.704;5.146;2023-04-03T10:22:30;1.40;;;0.57;;
55483;SDS011;41345;51.704;5.146;2023-04-03T10:32:50;2.92;;;0.70;;
55483;SDS011;41345;51.704;5.146;2023-04-03T10:38:04;2.40;;;0.50;;
55483;SDS011;41345;51.704;5.146;2023-04-03T10:48:16;1.48;;;0.68;;
55483;SDS011;41345;51.704;5.146;2023-04-03T10:58:32;2.50;;;0.85;;
55483;SDS011;41345;51.704;5.146;2023-04-03T11:03:34;2.35;;;0.45;;
55483;SDS011;41345;51.704;5.146;2023-04-03T11:08:42;0.93;;;0.50;;
55483;SDS011;41345;51.704;5.146;2023-04-03T11:18:59;2.58;;;0.50;;
55483;SDS011;41345;51.704;5.146;2023-04-03T11:24:00;1.83;;;0.43;;
55483;SDS011;41345;51.704;5.146;2023-04-03T11:29:03;2.17;;;0.75;;
55483;SDS011;41345;51.704;5.146;2023-04-03T11:39:50;1.83;;;0.70;;
55483;SDS011;41345;51.704;5.146;2023-04-03T11:44:35;0.90;;;0.60;;
55483;SDS011;41345;51.704;5.146;2023-04-03T11:54:57;1.10;;;0.50;;
55483;SDS011;41345;51.704;5.146;2023-04-03T11:59:57;2.63;;;0.60;;
55483;SDS011;41345;51.704;5.146;2023-04-03T12:05:24;1.40;;;0.50;;
55483;SDS011;41345;51.704;5.146;2023-04-03T12:10:25;2.25;;;0.50;;
55483;SDS011;41345;51.704;5.146;2023-04-03T12:15:41;0.40;;;0.40;;
55483;SDS011;41345;51.704;5.146;2023-04-03T12:20:54;0.70;;;0.40;;
55483;SDS011;41345;51.704;5.146;2023-04-03T12:31:04;0.40;;;0.35;;
55483;SDS011;41345;51.704;5.146;2023-04-03T12:36:08;0.73;;;0.50;;
55483;SDS011;41345;51.704;5.146;2023-04-03T12:46:12;3.38;;;0.80;;
55483;SDS011;41345;51.704;5.146;2023-04-03T12:56:34;1.48;;;0.68;;
55483;SDS011;41345;51.704;5.146;2023-04-03T13:01:36;1.33;;;0.43;;
55483;SDS011;41345;51.704;5.146;2023-04-03T13:06:43;1.85;;;0.60;;
55483;SDS011;41345;51.704;5.146;2023-04-03T13:11:43;2.85;;;0.75;;
55483;SDS011;41345;51.704;5.146;2023-04-03T13:17:03;2.30;;;0.88;;
55483;SDS011;41345;51.704;5.146;2023-04-03T13:22:26;3.70;;;0.85;;
55483;SDS011;41345;51.704;5.146;2023-04-03T13:27:25;0.98;;;0.55;;
55483;SDS011;41345;51.704;5.146;2023-04-03T13:32:26;5.32;;;1.13;;
55483;SDS011;41345;51.704;5.146;2023-04-03T13:37:28;1.27;;;0.60;;
55483;SDS011;41345;51.704;5.146;2023-04-03T13:42:30;2.53;;;0.85;;
55483;SDS011;41345;51.704;5.146;2023-04-03T13:47:37;1.48;;;0.75;;
55483;SDS011;41345;51.704;5.146;2023-04-03T13:52:48;3.05;;;1.00;;
55483;SDS011;41345;51.704;5.146;2023-04-03T14:02:59;1.95;;;0.70;;
55483;SDS011;41345;51.704;5.146;2023-04-03T14:07:59;2.03;;;0.77;;
55483;SDS011;41345;51.704;5.146;2023-04-03T14:13:01;0.85;;;0.60;;
55483;SDS011;41345;51.704;5.146;2023-04-03T14:18:01;3.13;;;0.70;;
55483;SDS011;41345;51.704;5.146;2023-04-03T14:23:01;3.38;;;0.68;;
55483;SDS011;41345;51.704;5.146;2023-04-03T14:28:06;3.25;;;1.00;;
55483;SDS011;41345;51.704;5.146;2023-04-03T14:33:13;3.50;;;1.20;;
55483;SDS011;41345;51.704;5.146;2023-04-03T14:38:24;2.45;;;0.80;;
55483;SDS011;41345;51.704;5.146;2023-04-03T14:43:25;2.35;;;1.08;;
55483;SDS011;41345;51.704;5.146;2023-04-03T14:48:26;2.97;;;0.90;;
55483;SDS011;41345;51.704;5.146;2023-04-03T14:53:27;2.58;;;1.05;;
55483;SDS011;41345;51.704;5.146;2023-04-03T14:58:30;2.97;;;1.27;;
55483;SDS011;41345;51.704;5.146;2023-04-03T15:03:32;4.45;;;1.05;;
55483;SDS011;41345;51.704;5.146;2023-04-03T15:08:32;2.90;;;0.80;;
55483;SDS011;41345;51.704;5.146;2023-04-03T15:13:32;2.70;;;1.10;;
55483;SDS011;41345;51.704;5.146;2023-04-03T15:18:35;4.17;;;1.23;;
55483;SDS011;41345;51.704;5.146;2023-04-03T15:23:37;2.65;;;0.77;;
55483;SDS011;41345;51.704;5.146;2023-04-03T15:28:39;2.38;;;1.00;;
55483;SDS011;41345;51.704;5.146;2023-04-03T15:33:40;4.13;;;1.10;;
55483;SDS011;41345;51.704;5.146;2023-04-03T15:38:40;1.67;;;0.73;;
55483;SDS011;41345;51.704;5.146;2023-04-03T15:43:40;4.57;;;1.00;;
55483;SDS011;41345;51.704;5.146;2023-04-03T15:48:41;1.95;;;0.82;;
55483;SDS011;41345;51.704;5.146;2023-04-03T15:53:41;3.08;;;1.15;;
55483;SDS011;41345;51.704;5.146;2023-04-03T15:58:42;3.58;;;0.88;;
55483;SDS011;41345;51.704;5.146;2023-04-03T16:03:42;2.72;;;1.10;;
55483;SDS011;41345;51.704;5.146;2023-04-03T16:08:46;3.47;;;1.05;;
55483;SDS011;41345;51.704;5.146;2023-04-03T16:13:46;3.83;;;1.00;;
55483;SDS011;41345;51.704;5.146;2023-04-03T16:18:46;3.70;;;1.38;;
55483;SDS011;41345;51.704;5.146;2023-04-03T16:23:47;2.33;;;0.90;;
55483;SDS011;41345;51.704;5.146;2023-04-03T16:28:47;3.65;;;1.30;;
55483;SDS011;41345;51.704;5.146;2023-04-03T16:33:47;3.20;;;1.08;;
55483;SDS011;41345;51.704;5.146;2023-04-03T16:38:48;5.95;;;1.30;;
55483;SDS011;41345;51.704;5.146;2023-04-03T16:43:48;3.08;;;1.10;;
55483;SDS011;41345;51.704;5.146;2023-04-03T16:48:50;4.95;;;1.40;;
55483;SDS011;41345;51.704;5.146;2023-04-03T16:53:50;3.72;;;1.13;;
55483;SDS011;41345;51.704;5.146;2023-04-03T16:58:51;2.53;;;1.10;;
55483;SDS011;41345;51.704;5.146;2023-04-03T17:03:51;7.00;;;1.58;;
55483;SDS011;41345;51.704;5.146;2023-04-03T17:08:51;4.57;;;1.10;;
55483;SDS011;41345;51.704;5.146;2023-04-03T17:13:52;4.10;;;1.27;;
55483;SDS011;41345;51.704;5.146;2023-04-03T17:18:52;1.53;;;0.80;;
55483;SDS011;41345;51.704;5.146;2023-04-03T17:23:57;6.15;;;1.50;;
55483;SDS011;41345;51.704;5.146;2023-04-03T17:28:58;4.53;;;0.90;;
55483;SDS011;41345;51.704;5.146;2023-04-03T17:33:59;1.85;;;0.68;;
55483;SDS011;41345;51.704;5.146;2023-04-03T17:39:02;2.05;;;1.00;;
55483;SDS011;41345;51.704;5.146;2023-04-03T17:44:02;2.58;;;1.00;;
55483;SDS011;41345;51.704;5.146;2023-04-03T17:49:03;3.45;;;1.35;;
55483;SDS011;41345;51.704;5.146;2023-04-03T17:54:03;3.03;;;1.40;;
55483;SDS011;41345;51.704;5.146;2023-04-03T17:59:04;3.55;;;1.23;;
55483;SDS011;41345;51.704;5.146;2023-04-03T18:04:04;4.20;;;1.17;;
55483;SDS011;41345;51.704;5.146;2023-04-03T18:09:15;2.75;;;1.20;;
55483;SDS011;41345;51.704;5.146;2023-04-03T18:14:18;3.88;;;1.00;;
55483;SDS011;41345;51.704;5.146;2023-04-03T18:19:19;4.50;;;1.10;;
55483;SDS011;41345;51.704;5.146;2023-04-03T18:24:20;8.40;;;1.77;;
55483;SDS011;41345;51.704;5.146;2023-04-03T18:29:20;5.00;;;1.58;;
55483;SDS011;41345;51.704;5.146;2023-04-03T18:34:21;6.35;;;1.60;;
55483;SDS011;41345;51.704;5.146;2023-04-03T18:39:21;4.32;;;1.30;;
55483;SDS011;41345;51.704;5.146;2023-04-03T18:44:22;6.60;;;1.70;;
55483;SDS011;41345;51.704;5.146;2023-04-03T18:49:24;5.13;;;1.80;;
55483;SDS011;41345;51.704;5.146;2023-04-03T18:54:24;5.50;;;1.90;;
55483;SDS011;41345;51.704;5.146;2023-04-03T18:59:24;6.57;;;1.88;;
55483;SDS011;41345;51.704;5.146;2023-04-03T19:04:26;5.07;;;1.75;;
55483;SDS011;41345;51.704;5.146;2023-04-03T19:09:27;4.50;;;2.10;;
55483;SDS011;41345;51.704;5.146;2023-04-03T19:14:28;8.80;;;2.33;;
55483;SDS011;41345;51.704;5.146;2023-04-03T19:19:29;6.88;;;1.85;;
55483;SDS011;41345;51.704;5.146;2023-04-03T19:24:29;6.50;;;2.00;;
55483;SDS011;41345;51.704;5.146;2023-04-03T19:29:29;5.45;;;1.80;;
55483;SDS011;41345;51.704;5.146;2023-04-03T19:34:30;6.15;;;2.15;;
55483;SDS011;41345;51.704;5.146;2023-04-03T19:39:30;6.47;;;2.03;;
55483;SDS011;41345;51.704;5.146;2023-04-03T19:44:34;7.13;;;1.67;;
55483;SDS011;41345;51.704;5.146;2023-04-03T19:49:35;6.47;;;1.90;;
55483;SDS011;41345;51.704;5.146;2023-04-03T19:54:35;8.18;;;1.90;;
55483;SDS011;41345;51.704;5.146;2023-04-03T19:59:35;7.78;;;2.42;;
55483;SDS011;41345;51.704;5.146;2023-04-03T20:04:36;5.80;;;2.07;;
55483;SDS011;41345;51.704;5.146;2023-04-03T20:09:36;3.58;;;1.65;;
55483;SDS011;41345;51.704;5.146;2023-04-03T20:14:36;6.37;;;1.97;;
55483;SDS011;41345;51.704;5.146;2023-04-03T20:19:38;3.80;;;1.75;;
55483;SDS011;41345;51.704;5.146;2023-04-03T20:24:40;5.25;;;1.80;;
55483;SDS011;41345;51.704;5.146;2023-04-03T20:29:40;7.10;;;2.22;;
55483;SDS011;41345;51.704;5.146;2023-04-03T20:34:41;7.18;;;2.28;;
55483;SDS011;41345;51.704;5.146;2023-04-03T20:39:41;9.20;;;2.17;;
55483;SDS011;41345;51.704;5.146;2023-04-03T20:44:42;4.55;;;1.92;;
55483;SDS011;41345;51.704;5.146;2023-04-03T20:49:44;7.60;;;2.35;;
55483;SDS011;41345;51.704;5.146;2023-04-03T20:54:45;8.13;;;2.30;;
55483;SDS011;41345;51.704;5.146;2023-04-03T20:59:46;6.90;;;2.10;;
55483;SDS011;41345;51.704;5.146;2023-04-03T21:04:51;7.18;;;2.63;;
55483;SDS011;41345;51.704;5.146;2023-04-03T21:20:30;6.13;;;2.60;;
55483;SDS011;41345;51.704;5.146;2023-04-03T21:25:31;7.55;;;2.80;;
55483;SDS011;41345;51.704;5.146;2023-04-03T21:30:31;6.65;;;2.58;;
55483;SDS011;41345;51.704;5.146;2023-04-03T21:35:31;7.70;;;3.30;;
55483;SDS011;41345;51.704;5.146;2023-04-03T21:40:32;8.25;;;3.47;;
55483;SDS011;41345;51.704;5.146;2023-04-03T21:45:32;9.00;;;4.20;;
55483;SDS011;41345;51.704;5.146;2023-04-03T21:50:33;7.40;;;3.40;;
55483;SDS011;41345;51.704;5.146;2023-04-03T21:55:33;8.95;;;4.50;;
55483;SDS011;41345;51.704;5.146;2023-04-03T22:00:34;9.98;;;4.70;;
55483;SDS011;41345;51.704;5.146;2023-04-03T22:05:34;8.07;;;3.83;;
55483;SDS011;41345;51.704;5.146;2023-04-03T22:10:35;8.05;;;3.83;;
55483;SDS011;41345;51.704;5.146;2023-04-03T22:15:35;8.05;;;4.07;;
55483;SDS011;41345;51.704;5.146;2023-04-03T22:20:42;7.13;;;3.42;;
55483;SDS011;41345;51.704;5.146;2023-04-03T22:25:42;10.98;;;3.80;;
55483;SDS011;41345;51.704;5.146;2023-04-03T22:30:43;8.00;;;3.27;;
55483;SDS011;41345;51.704;5.146;2023-04-03T22:35:46;8.27;;;3.08;;
55483;SDS011;41345;51.704;5.146;2023-04-03T22:40:54;6.43;;;3.13;;
55483;SDS011;41345;51.704;5.146;2023-04-03T22:45:55;9.27;;;3.97;;
55483;SDS011;41345;51.704;5.146;2023-04-03T22:50:56;6.00;;;2.90;;
55483;SDS011;41345;51.704;5.146;2023-04-03T22:55:56;12.23;;;3.97;;
55483;SDS011;41345;51.704;5.146;2023-04-03T23:01:04;5.35;;;2.42;;
55483;SDS011;41345;51.704;5.146;2023-04-03T23:06:06;7.72;;;2.92;;
55483;SDS011;41345;51.704;5.146;2023-04-03T23:11:06;6.18;;;2.63;;
55483;SDS011;41345;51.704;5.146;2023-04-03T23:16:08;9.90;;;3.13;;
55483;SDS011;41345;51.704;5.146;2023-04-03T23:21:08;8.25;;;3.05;;
55483;SDS011;41345;51.704;5.146;2023-04-03T23:26:09;8.95;;;3.60;;
55483;SDS011;41345;51.704;5.146;2023-04-03T23:31:10;9.18;;;4.07;;
55483;SDS011;41345;51.704;5.146;2023-04-03T23:36:10;6.33;;;3.67;;
55483;SDS011;41345;51.704;5.146;2023-04-03T23:41:12;7.00;;;3.50;;
55483;SDS011;41345;51.704;5.146;2023-04-03T23:46:12;6.97;;;3.85;;
55483;SDS011;41345;51.704;5.146;2023-04-03T23:51:12;5.53;;;3.22;;
55483;SDS011;41345;51.704;5.146;2023-04-03T23:56:12;9.23;;;3.58;;
